Time;durP1;ratioP1;P1;durP2;ratioP2;P2;SDS_P1;SDS_P2;PMS_P1;PMS_P2;Temp;Humidity;BMP_temperature;BMP_pressure;BME280_temperature;BME280_humidity;BME280_pressure;Samples;Min_cycle;Max_cycle;Signal;HPM_P1;HPM_P2
2024/03/31 00:01:18;;;;;;;69.83;25.40;;;13.60;99.90;;;;;;5093872;28;20198;-62
2024/03/31 00:03:45;;;;;;;61.37;27.40;;;13.70;99.90;;;;;;5093746;28;20530;-62
2024/03/31 00:06:11;;;;;;;69.63;26.67;;;13.70;99.90;;;;;;5093927;28;20220;-62
2024/03/31 00:08:37;;;;;;;71.27;26.87;;;13.80;99.90;;;;;;5093895;28;20458;-62
2024/03/31 00:11:06;;;;;;;61.63;24.77;;;13.70;99.90;;;;;;5093854;28;20555;-62
2024/03/31 00:13:33;;;;;;;59.03;25.23;;;13.70;99.90;;;;;;5093740;28;21005;-62
2024/03/31 00:16:00;;;;;;;98.13;26.30;;;13.70;99.90;;;;;;5093661;28;20481;-62
2024/03/31 00:18:27;;;;;;;66.20;25.50;;;13.80;99.90;;;;;;5093583;28;20520;-62
2024/03/31 00:20:53;;;;;;;74.93;25.40;;;13.90;99.90;;;;;;5093757;28;20445;-62
2024/03/31 00:23:20;;;;;;;71.57;26.80;;;13.90;99.90;;;;;;5093623;28;20512;-62
2024/03/31 00:25:45;;;;;;;62.40;24.27;;;14.00;99.90;;;;;;5093009;28;20514;-62
2024/03/31 00:28:11;;;;;;;52.47;23.83;;;14.00;99.90;;;;;;5093354;28;20843;-62
2024/03/31 00:30:37;;;;;;;60.53;26.00;;;14.10;99.90;;;;;;5093467;28;20275;-62
2024/03/31 00:33:06;;;;;;;70.57;27.37;;;14.10;99.90;;;;;;5093265;28;20895;-62
2024/03/31 00:35:31;;;;;;;64.70;26.70;;;14.10;99.90;;;;;;5093520;28;20219;-62
2024/03/31 00:37:58;;;;;;;63.57;25.20;;;14.10;99.90;;;;;;5093443;28;20450;-62
2024/03/31 00:40:23;;;;;;;56.57;22.00;;;14.00;99.90;;;;;;5093391;28;20202;-62
2024/03/31 00:42:50;;;;;;;71.27;27.20;;;14.00;99.90;;;;;;5093285;28;20558;-62
2024/03/31 00:45:15;;;;;;;67.53;24.50;;;14.00;99.90;;;;;;5093125;28;20311;-62
2024/03/31 00:47:42;;;;;;;60.80;23.20;;;14.00;99.90;;;;;;5093081;28;20536;-62
2024/03/31 00:50:08;;;;;;;66.13;24.03;;;14.00;99.90;;;;;;5093284;28;20197;-62
2024/03/31 00:52:35;;;;;;;76.57;24.27;;;14.00;99.90;;;;;;5093338;28;20464;-62
2024/03/31 00:55:01;;;;;;;63.37;23.37;;;13.90;99.90;;;;;;5093175;28;20449;-62
2024/03/31 00:57:27;;;;;;;60.10;22.80;;;13.90;99.90;;;;;;5093100;28;20540;-62
2024/03/31 00:59:53;;;;;;;55.57;23.20;;;14.00;99.90;;;;;;5093033;28;20193;-62
2024/03/31 01:02:20;;;;;;;57.37;22.00;;;13.90;99.90;;;;;;5092886;28;20458;-62
2024/03/31 01:04:45;;;;;;;73.83;24.13;;;13.70;99.90;;;;;;5093274;28;20225;-62
2024/03/31 01:07:13;;;;;;;75.77;23.30;;;13.60;99.90;;;;;;5093077;28;20455;-62
2024/03/31 01:09:38;;;;;;;87.00;23.03;;;13.70;99.90;;;;;;5092924;28;20255;-62
2024/03/31 01:12:05;;;;;;;46.67;19.03;;;13.70;99.90;;;;;;5092965;28;20477;-62
2024/03/31 01:14:31;;;;;;;49.00;17.80;;;13.60;99.90;;;;;;5092827;28;20281;-62
2024/03/31 01:16:58;;;;;;;66.93;22.50;;;13.60;99.90;;;;;;5092815;28;20455;-62
2024/03/31 01:19:23;;;;;;;56.63;20.60;;;13.70;99.90;;;;;;5093062;28;20868;-62
2024/03/31 01:21:50;;;;;;;67.00;22.50;;;13.70;99.90;;;;;;5093013;28;20479;-63
2024/03/31 01:24:17;;;;;;;70.33;23.20;;;13.70;99.90;;;;;;5092854;28;20189;-62
2024/03/31 01:26:44;;;;;;;62.50;21.40;;;13.70;99.90;;;;;;5092843;28;20461;-62
2024/03/31 01:29:09;;;;;;;66.93;21.73;;;13.80;99.90;;;;;;5092748;28;20443;-62
2024/03/31 01:31:36;;;;;;;52.93;20.20;;;13.80;99.90;;;;;;5092771;28;20546;-62
2024/03/31 01:34:02;;;;;;;61.90;22.40;;;13.80;99.90;;;;;;5093171;28;20189;-62
2024/03/31 01:36:28;;;;;;;57.07;18.23;;;13.80;99.90;;;;;;5092789;28;20458;-62
2024/03/31 01:38:54;;;;;;;46.23;19.67;;;13.90;99.90;;;;;;5096105;28;20530;-62
2024/03/31 01:41:21;;;;;;;57.80;21.30;;;13.80;99.90;;;;;;5096627;28;20557;-62
2024/03/31 01:43:47;;;;;;;62.57;21.23;;;13.70;99.90;;;;;;5096535;28;20208;-62
2024/03/31 01:46:14;;;;;;;63.73;20.60;;;13.80;99.90;;;;;;5096641;28;20593;-62
2024/03/31 01:48:39;;;;;;;67.57;20.03;;;13.70;99.90;;;;;;5096839;28;20197;-62
2024/03/31 01:51:06;;;;;;;63.10;20.30;;;13.80;99.90;;;;;;5096749;28;20462;-62
2024/03/31 01:53:31;;;;;;;60.43;20.43;;;13.80;99.90;;;;;;5096443;28;20280;-62
2024/03/31 01:55:58;;;;;;;56.77;20.30;;;13.70;99.90;;;;;;5096423;28;20992;-62
2024/03/31 01:58:24;;;;;;;63.70;20.77;;;13.70;99.90;;;;;;5096143;28;20189;-62
2024/03/31 02:00:51;;;;;;;55.07;18.27;;;13.70;99.90;;;;;;5096408;28;20532;-62
2024/03/31 02:03:18;;;;;;;55.87;19.33;;;13.70;99.90;;;;;;5096315;28;20448;-62
2024/03/31 02:05:44;;;;;;;51.13;19.83;;;13.70;99.90;;;;;;5096150;28;20488;-62
2024/03/31 02:08:10;;;;;;;56.97;18.43;;;13.80;99.90;;;;;;5096141;28;20449;-62
2024/03/31 02:10:36;;;;;;;64.73;19.90;;;13.80;99.90;;;;;;5096114;28;20545;-62
2024/03/31 02:13:02;;;;;;;56.57;18.17;;;13.80;99.90;;;;;;5095913;28;20288;-62
2024/03/31 02:15:30;;;;;;;52.27;18.33;;;13.80;99.90;;;;;;5096134;28;20514;-62
2024/03/31 02:17:55;;;;;;;68.90;21.50;;;13.80;99.90;;;;;;5095842;28;20196;-62
2024/03/31 02:20:22;;;;;;;60.27;20.80;;;13.80;99.90;;;;;;5095787;28;20559;-62
2024/03/31 02:22:49;;;;;;;53.10;18.77;;;13.80;99.90;;;;;;5096090;28;20191;-62
2024/03/31 02:25:16;;;;;;;59.77;20.13;;;13.80;99.90;;;;;;5095695;28;20483;-62
2024/03/31 02:27:41;;;;;;;57.40;18.73;;;13.80;99.90;;;;;;5095580;28;20942;-62
2024/03/31 02:30:08;;;;;;;60.57;18.73;;;13.80;99.90;;;;;;5095583;28;20542;-62
2024/03/31 02:32:41;;;;;;;59.00;20.40;;;13.80;99.90;;;;;;5095837;28;20188;-66
2024/03/31 02:35:08;;;;;;;56.37;20.73;;;13.80;99.90;;;;;;5095039;28;20447;-61
2024/03/31 02:37:33;;;;;;;56.83;20.37;;;13.70;99.90;;;;;;5095564;28;20439;-61
2024/03/31 02:40:00;;;;;;;52.13;19.73;;;13.70;99.90;;;;;;5095428;28;20469;-61
2024/03/31 02:42:26;;;;;;;55.13;18.60;;;13.70;99.90;;;;;;5095392;28;20189;-61
2024/03/31 02:44:52;;;;;;;57.97;18.27;;;13.70;99.90;;;;;;5095454;28;20493;-61
2024/03/31 02:47:18;;;;;;;57.67;18.43;;;13.70;99.90;;;;;;5095243;28;20620;-61
2024/03/31 02:49:46;;;;;;;53.23;18.07;;;13.70;99.90;;;;;;5094783;28;20512;-61
2024/03/31 02:52:11;;;;;;;44.80;17.67;;;13.70;99.90;;;;;;5095212;28;20530;-61
2024/03/31 02:54:38;;;;;;;57.30;18.10;;;13.70;99.90;;;;;;5095122;28;20542;-61
2024/03/31 02:57:04;;;;;;;49.07;19.10;;;13.70;99.90;;;;;;5095358;28;20273;-61
2024/03/31 02:59:30;;;;;;;60.83;19.77;;;13.60;99.90;;;;;;5095322;28;20547;-61
2024/03/31 03:01:56;;;;;;;52.67;18.50;;;13.60;99.90;;;;;;5095173;28;20207;-61
2024/03/31 03:04:22;;;;;;;52.80;16.13;;;13.60;99.90;;;;;;5095028;28;20541;-61
2024/03/31 03:06:49;;;;;;;54.40;18.93;;;13.60;99.90;;;;;;5094934;28;20220;-61
2024/03/31 03:09:15;;;;;;;62.10;18.57;;;13.60;99.90;;;;;;5094847;28;20478;-61
2024/03/31 03:11:41;;;;;;;61.17;18.50;;;13.60;99.90;;;;;;5095099;28;20516;-61
2024/03/31 03:14:07;;;;;;;50.13;18.93;;;13.60;99.90;;;;;;5095019;28;20568;-62
2024/03/31 03:16:33;;;;;;;57.40;17.70;;;13.50;99.90;;;;;;5094863;28;20284;-61
2024/03/31 03:18:59;;;;;;;57.13;17.63;;;13.50;99.90;;;;;;5094865;28;20643;-61
2024/03/31 03:21:25;;;;;;;55.57;17.23;;;13.50;99.90;;;;;;5094758;28;20278;-61
2024/03/31 03:23:52;;;;;;;48.40;15.83;;;13.50;99.90;;;;;;5094641;28;20977;-61
2024/03/31 03:26:18;;;;;;;40.53;16.07;;;13.40;99.90;;;;;;5094748;28;20226;-61
2024/03/31 03:28:46;;;;;;;61.00;17.00;;;13.40;99.90;;;;;;5094659;28;20889;-61
2024/03/31 03:31:11;;;;;;;58.77;17.80;;;13.40;99.90;;;;;;5094613;28;20197;-61
2024/03/31 03:33:38;;;;;;;40.83;17.10;;;13.40;99.90;;;;;;5094512;28;20454;-61
2024/03/31 03:36:04;;;;;;;52.87;19.03;;;13.40;99.90;;;;;;5094407;28;20198;-61
2024/03/31 03:38:31;;;;;;;50.20;19.07;;;13.40;99.90;;;;;;5094260;28;20452;-61
2024/03/31 03:40:59;;;;;;;45.70;18.07;;;13.40;99.90;;;;;;5094582;28;20468;-61
2024/03/31 03:43:24;;;;;;;52.50;18.17;;;13.30;99.90;;;;;;5094358;28;20449;-61
2024/03/31 03:45:51;;;;;;;46.20;16.70;;;13.30;99.90;;;;;;5094069;28;20573;-61
2024/03/31 03:48:16;;;;;;;49.00;17.10;;;13.30;99.90;;;;;;5094253;28;20189;-61
2024/03/31 03:50:43;;;;;;;53.03;18.90;;;13.20;99.90;;;;;;5094082;28;20542;-61
2024/03/31 03:53:08;;;;;;;63.73;17.70;;;13.20;99.90;;;;;;5094170;28;20185;-61
2024/03/31 03:55:35;;;;;;;50.33;16.87;;;13.20;99.90;;;;;;5094235;28;20895;-61
2024/03/31 03:58:02;;;;;;;56.87;17.33;;;13.30;99.90;;;;;;5094101;28;20301;-62
2024/03/31 04:00:28;;;;;;;50.20;15.97;;;13.30;99.90;;;;;;5093495;28;20451;-61
2024/03/31 04:02:54;;;;;;;53.90;18.30;;;13.20;99.90;;;;;;5093938;28;20538;-61
2024/03/31 04:05:20;;;;;;;44.83;17.13;;;13.20;99.90;;;;;;5093939;28;20550;-61
2024/03/31 04:07:46;;;;;;;48.80;17.30;;;13.20;99.90;;;;;;5093780;28;20194;-61
2024/03/31 04:10:13;;;;;;;56.60;17.60;;;13.10;99.90;;;;;;5093875;28;20543;-61
2024/03/31 04:12:38;;;;;;;59.70;17.50;;;12.90;99.90;;;;;;5093886;28;20555;-61
2024/03/31 04:15:06;;;;;;;47.67;15.97;;;12.90;99.90;;;;;;5093754;28;20529;-61
2024/03/31 04:17:34;;;;;;;47.33;18.60;;;12.90;99.90;;;;;;5093666;28;20277;-61
2024/03/31 04:20:01;;;;;;;49.40;16.40;;;12.90;99.90;;;;;;5093842;28;20450;-61
2024/03/31 04:22:26;;;;;;;44.07;16.00;;;12.90;99.90;;;;;;5093708;28;20450;-61
2024/03/31 04:24:53;;;;;;;54.00;17.17;;;12.80;99.90;;;;;;5093630;28;20447;-61
2024/03/31 04:27:18;;;;;;;40.50;16.13;;;12.90;99.90;;;;;;5093975;28;20191;-61
2024/03/31 04:29:45;;;;;;;53.70;16.90;;;12.90;99.90;;;;;;5093479;28;20577;-61
2024/03/31 04:32:11;;;;;;;57.20;19.00;;;12.80;99.90;;;;;;5093810;28;20619;-62
2024/03/31 04:34:38;;;;;;;40.63;16.13;;;12.70;99.90;;;;;;5093342;28;20483;-62
2024/03/31 04:37:04;;;;;;;52.47;19.33;;;12.50;99.90;;;;;;5093554;28;20609;-62
2024/03/31 04:39:30;;;;;;;45.30;16.27;;;12.60;99.90;;;;;;5093545;28;20541;-62
2024/03/31 04:41:56;;;;;;;45.33;15.90;;;12.60;99.90;;;;;;5093350;28;20275;-62
2024/03/31 04:44:22;;;;;;;50.03;16.50;;;12.50;99.90;;;;;;5093227;28;20485;-62
2024/03/31 04:46:49;;;;;;;40.00;15.57;;;12.60;99.90;;;;;;5093164;28;20234;-62
2024/03/31 04:49:18;;;;;;;48.53;16.00;;;12.60;99.90;;;;;;5093325;28;20968;-62
2024/03/31 04:51:44;;;;;;;46.43;18.60;;;12.40;99.90;;;;;;5093378;28;20448;-62
2024/03/31 04:54:10;;;;;;;39.37;15.10;;;12.40;99.90;;;;;;5093328;28;20454;-62
2024/03/31 04:56:36;;;;;;;41.83;17.33;;;12.40;99.90;;;;;;5093184;28;20451;-62
2024/03/31 04:59:02;;;;;;;45.50;17.57;;;12.50;99.90;;;;;;5093043;28;20856;-62
2024/03/31 05:01:28;;;;;;;43.60;17.00;;;12.50;99.90;;;;;;5093139;28;20533;-62
2024/03/31 05:03:54;;;;;;;42.07;17.13;;;12.50;99.90;;;;;;5092946;28;20549;-62
2024/03/31 05:06:21;;;;;;;54.17;17.93;;;12.60;99.90;;;;;;5093138;28;20307;-63
2024/03/31 05:08:48;;;;;;;48.13;16.40;;;12.60;99.90;;;;;;5093183;28;20455;-62
2024/03/31 05:11:13;;;;;;;55.77;16.00;;;12.60;99.90;;;;;;5093036;28;20478;-62
2024/03/31 05:13:40;;;;;;;49.87;17.43;;;12.60;99.90;;;;;;5096191;28;20493;-62
2024/03/31 05:16:08;;;;;;;56.07;16.00;;;12.50;99.90;;;;;;5097158;28;20200;-62
2024/03/31 05:18:35;;;;;;;61.73;16.10;;;12.50;99.90;;;;;;5097028;28;20816;-62
2024/03/31 05:21:02;;;;;;;43.77;15.40;;;12.50;99.90;;;;;;5096938;28;21009;-62
2024/03/31 05:23:31;;;;;;;59.33;18.33;;;12.60;99.90;;;;;;5097033;28;20464;-62
2024/03/31 05:25:57;;;;;;;45.00;16.07;;;12.50;99.90;;;;;;5096900;28;20520;-62
2024/03/31 05:28:25;;;;;;;31.40;15.10;;;12.50;99.90;;;;;;5096914;28;20454;-62
2024/03/31 05:30:51;;;;;;;48.47;17.40;;;12.60;99.90;;;;;;5096699;28;21009;-62
2024/03/31 05:33:17;;;;;;;42.63;16.20;;;12.70;99.90;;;;;;5096701;28;20499;-62
2024/03/31 05:35:45;;;;;;;56.50;15.07;;;12.70;99.90;;;;;;5096884;28;20199;-62
2024/03/31 05:38:12;;;;;;;50.87;16.30;;;12.70;99.90;;;;;;5096674;28;20950;-62
2024/03/31 05:40:40;;;;;;;45.70;16.20;;;12.60;99.90;;;;;;5096673;28;20450;-62
2024/03/31 05:43:07;;;;;;;49.20;16.63;;;12.60;99.90;;;;;;5096601;28;20490;-62
2024/03/31 05:45:34;;;;;;;47.27;16.83;;;12.70;99.90;;;;;;5096253;28;20471;-62
2024/03/31 05:48:01;;;;;;;45.77;17.50;;;12.70;99.90;;;;;;5096757;28;20546;-62
2024/03/31 05:50:26;;;;;;;43.10;15.00;;;12.70;99.90;;;;;;5096617;28;20874;-62
2024/03/31 05:52:53;;;;;;;40.43;16.03;;;12.70;99.90;;;;;;5096448;28;20553;-62
2024/03/31 05:55:18;;;;;;;55.07;17.23;;;12.70;99.90;;;;;;5096456;28;20195;-62
2024/03/31 05:57:46;;;;;;;46.07;16.93;;;12.70;99.90;;;;;;5096407;28;20544;-62
2024/03/31 06:00:12;;;;;;;40.00;17.27;;;12.70;99.90;;;;;;5096195;28;20525;-62
2024/03/31 06:02:39;;;;;;;43.93;16.57;;;12.80;99.90;;;;;;5096442;28;20454;-62
2024/03/31 06:05:06;;;;;;;42.23;16.97;;;12.90;99.90;;;;;;5096246;28;20533;-63
2024/03/31 06:07:32;;;;;;;48.17;15.83;;;13.00;99.90;;;;;;5096231;28;20880;-62
2024/03/31 06:09:58;;;;;;;43.90;16.00;;;13.00;99.90;;;;;;5096162;28;20444;-62
2024/03/31 06:12:25;;;;;;;51.43;17.20;;;13.00;99.90;;;;;;5096054;28;20896;-62
2024/03/31 06:14:52;;;;;;;46.00;17.10;;;13.10;99.90;;;;;;5096412;28;20449;-62
2024/03/31 06:17:20;;;;;;;37.53;15.77;;;13.10;99.90;;;;;;5096056;28;20446;-62
2024/03/31 06:19:46;;;;;;;38.67;14.77;;;13.20;99.90;;;;;;5096039;28;20445;-62
2024/03/31 06:22:12;;;;;;;45.37;16.57;;;13.30;99.90;;;;;;5095911;28;20533;-62
2024/03/31 06:24:38;;;;;;;45.83;16.10;;;13.30;99.90;;;;;;5094772;28;20599;-62
2024/03/31 06:27:05;;;;;;;50.07;15.23;;;13.30;99.90;;;;;;5095613;28;20493;-62
2024/03/31 06:29:30;;;;;;;55.03;18.53;;;13.40;99.90;;;;;;5095621;28;20276;-62
2024/03/31 06:31:58;;;;;;;51.47;18.47;;;13.20;99.90;;;;;;5095804;28;20557;-62
2024/03/31 06:34:23;;;;;;;44.47;17.60;;;13.10;99.90;;;;;;5095719;28;20283;-62
2024/03/31 06:36:50;;;;;;;56.87;18.33;;;13.10;99.90;;;;;;5095608;28;20482;-62
2024/03/31 06:39:16;;;;;;;48.10;17.97;;;13.20;99.90;;;;;;5095866;28;20200;-62
2024/03/31 06:41:42;;;;;;;53.67;19.17;;;13.20;99.90;;;;;;5095406;28;20537;-62
2024/03/31 06:44:08;;;;;;;43.27;18.17;;;13.20;99.90;;;;;;5095477;28;20271;-62
2024/03/31 06:46:34;;;;;;;35.10;16.47;;;13.40;99.90;;;;;;5095150;28;20586;-62
2024/03/31 06:49:01;;;;;;;43.03;16.30;;;13.60;99.90;;;;;;5095475;28;20555;-62
2024/03/31 06:51:27;;;;;;;43.57;17.63;;;13.70;99.90;;;;;;5095327;28;20488;-62
2024/03/31 06:53:53;;;;;;;45.60;16.90;;;13.90;99.90;;;;;;5095206;28;20900;-62
2024/03/31 06:56:20;;;;;;;42.63;18.10;;;14.00;99.90;;;;;;5095129;28;20462;-62
2024/03/31 06:58:45;;;;;;;49.60;19.40;;;14.10;99.90;;;;;;5095450;28;20214;-62
2024/03/31 07:01:12;;;;;;;43.00;17.87;;;14.20;99.90;;;;;;5095312;28;20543;-62
2024/03/31 07:03:37;;;;;;;56.60;19.67;;;14.20;99.90;;;;;;5095266;28;20196;-62
2024/03/31 07:06:05;;;;;;;51.30;18.03;;;14.30;99.90;;;;;;5095012;28;21058;-62
2024/03/31 07:08:31;;;;;;;57.63;20.83;;;14.50;99.90;;;;;;5095045;28;20275;-62
2024/03/31 07:10:58;;;;;;;54.70;19.10;;;14.40;99.90;;;;;;5094828;28;20535;-62
2024/03/31 07:13:23;;;;;;;46.93;17.63;;;14.30;99.90;;;;;;5094763;28;20278;-62
2024/03/31 07:15:50;;;;;;;46.00;18.10;;;14.40;99.90;;;;;;5094972;28;20503;-62
2024/03/31 07:18:15;;;;;;;52.80;19.10;;;14.40;99.90;;;;;;5094814;28;20259;-62
2024/03/31 07:20:42;;;;;;;54.90;19.60;;;14.50;99.90;;;;;;5094701;28;20541;-62
2024/03/31 07:23:09;;;;;;;46.37;18.93;;;14.30;99.90;;;;;;5094653;28;20203;-62
2024/03/31 07:25:36;;;;;;;45.10;19.13;;;14.30;99.90;;;;;;5094464;28;20450;-62
2024/03/31 07:28:02;;;;;;;40.83;18.17;;;14.40;99.90;;;;;;5094672;28;20455;-62
2024/03/31 07:30:29;;;;;;;53.83;18.27;;;14.50;99.90;;;;;;5094547;28;20554;-62
2024/03/31 07:32:54;;;;;;;44.97;18.50;;;14.60;99.90;;;;;;5094732;28;20445;-62
2024/03/31 07:35:21;;;;;;;42.40;17.63;;;14.70;99.90;;;;;;5094230;28;20537;-62
2024/03/31 07:37:46;;;;;;;51.03;19.67;;;14.70;99.90;;;;;;5094477;28;20564;-62
2024/03/31 07:40:14;;;;;;;45.13;19.77;;;14.60;99.90;;;;;;5094249;28;20455;-62
2024/03/31 07:42:40;;;;;;;48.53;18.50;;;14.60;99.90;;;;;;5094427;28;20276;-62
2024/03/31 07:45:08;;;;;;;49.13;16.80;;;14.80;99.90;;;;;;5094448;28;20552;-63
2024/03/31 07:47:33;;;;;;;51.77;19.67;;;15.00;99.90;;;;;;5093969;28;20275;-62
2024/03/31 07:50:00;;;;;;;55.30;17.93;;;15.10;99.90;;;;;;5094211;28;20457;-62
2024/03/31 07:52:26;;;;;;;47.77;16.50;;;15.30;99.90;;;;;;5094322;28;20277;-63
2024/03/31 07:54:53;;;;;;;54.57;18.70;;;15.50;99.90;;;;;;5094108;28;20553;-62
2024/03/31 07:57:20;;;;;;;51.70;17.73;;;15.70;99.90;;;;;;5094165;28;20454;-62
2024/03/31 07:59:47;;;;;;;54.37;17.83;;;15.80;99.90;;;;;;5094068;28;20460;-62
2024/03/31 08:02:12;;;;;;;46.00;18.63;;;15.60;99.90;;;;;;5093860;28;20947;-62
2024/03/31 08:04:41;;;;;;;45.30;16.40;;;15.70;99.90;;;;;;5094128;28;20460;-62
2024/03/31 08:07:06;;;;;;;54.83;18.13;;;15.80;99.90;;;;;;5093654;28;20481;-62
2024/03/31 08:09:33;;;;;;;45.67;17.30;;;15.60;99.90;;;;;;5093696;28;20549;-62
2024/03/31 08:11:59;;;;;;;53.43;18.07;;;15.60;99.90;;;;;;5093872;28;20197;-62
2024/03/31 08:14:26;;;;;;;54.53;19.40;;;15.80;99.90;;;;;;5093774;28;20552;-62
2024/03/31 08:16:52;;;;;;;54.63;18.00;;;15.90;99.90;;;;;;5093716;28;20194;-62
2024/03/31 08:19:18;;;;;;;64.33;18.03;;;16.00;99.90;;;;;;5093558;28;20490;-62
2024/03/31 08:21:44;;;;;;;51.90;17.73;;;16.20;99.90;;;;;;5093578;28;20222;-62
2024/03/31 08:24:10;;;;;;;59.50;17.67;;;16.20;99.90;;;;;;5093743;28;20531;-62
2024/03/31 08:26:36;;;;;;;43.83;16.50;;;16.40;99.90;;;;;;5093444;28;20220;-62
2024/03/31 08:29:02;;;;;;;44.07;17.13;;;16.70;99.90;;;;;;5093289;28;20549;-62
2024/03/31 08:31:30;;;;;;;52.23;18.10;;;16.90;99.90;;;;;;5093420;28;20192;-62
2024/03/31 08:33:56;;;;;;;50.83;17.87;;;17.10;99.90;;;;;;5093530;28;20480;-62
2024/03/31 08:36:22;;;;;;;50.80;17.07;;;17.10;99.90;;;;;;5093157;28;20497;-62
2024/03/31 08:38:48;;;;;;;47.47;16.40;;;17.20;99.90;;;;;;5093494;28;20188;-62
2024/03/31 08:41:31;;;;;;;60.83;18.03;;;17.30;99.90;;;;;;5093341;28;20537;-62
2024/03/31 08:43:59;;;;;;;58.43;16.53;;;17.40;99.90;;;;;;5093326;28;20192;-62
2024/03/31 08:46:26;;;;;;;45.60;17.30;;;17.70;99.90;;;;;;5092792;28;20488;-62
2024/03/31 08:48:53;;;;;;;50.60;15.93;;;17.80;99.90;;;;;;5092633;28;20533;-62
2024/03/31 08:51:20;;;;;;;53.70;16.63;;;18.00;99.90;;;;;;5093556;28;20450;-62
2024/03/31 08:53:47;;;;;;;55.93;15.93;;;18.00;99.90;;;;;;5093187;28;20442;-62
2024/03/31 08:56:13;;;;;;;47.80;17.30;;;18.00;99.90;;;;;;5093130;28;20458;-62
2024/03/31 08:58:39;;;;;;;48.53;17.43;;;17.90;99.90;;;;;;5093065;28;20837;-62
2024/03/31 09:01:07;;;;;;;54.23;17.00;;;18.10;99.90;;;;;;5092981;28;20488;-62
2024/03/31 09:03:33;;;;;;;50.77;16.80;;;18.20;99.90;;;;;;5092847;28;20482;-62
2024/03/31 09:06:01;;;;;;;65.37;17.80;;;18.20;99.90;;;;;;5092924;28;20508;-62
2024/03/31 09:08:27;;;;;;;61.63;18.73;;;18.30;99.90;;;;;;5092986;28;20453;-63
2024/03/31 09:10:53;;;;;;;54.30;18.00;;;18.40;99.90;;;;;;5092951;28;20930;-62
2024/03/31 09:13:19;;;;;;;50.43;16.90;;;18.40;99.90;;;;;;5093288;28;20481;-62
2024/03/31 09:15:45;;;;;;;41.47;16.07;;;18.60;99.90;;;;;;5092713;28;20474;-62
2024/03/31 09:18:11;;;;;;;50.27;17.50;;;18.70;99.90;;;;;;5092705;28;20666;-62
2024/03/31 09:20:37;;;;;;;53.33;16.43;;;18.80;99.90;;;;;;5093008;28;20537;-62
2024/03/31 09:23:04;;;;;;;64.03;17.50;;;18.70;99.90;;;;;;5092922;28;20279;-63
2024/03/31 09:25:31;;;;;;;51.83;17.10;;;18.60;99.90;;;;;;5092809;28;20451;-62
2024/03/31 09:28:00;;;;;;;55.23;17.70;;;18.40;99.90;;;;;;5092656;28;20482;-62
2024/03/31 09:30:29;;;;;;;49.33;15.30;;;18.50;99.90;;;;;;5092660;28;20470;-62
2024/03/31 09:32:55;;;;;;;67.90;16.77;;;18.60;99.90;;;;;;5092703;28;20443;-62
2024/03/31 09:35:23;;;;;;;49.30;15.90;;;18.70;99.90;;;;;;5092806;28;20533;-62
2024/03/31 09:37:49;;;;;;;51.27;14.67;;;18.90;99.90;;;;;;5092694;28;20209;-62
2024/03/31 09:40:17;;;;;;;49.30;15.27;;;19.10;99.90;;;;;;5092542;28;20866;-62
2024/03/31 09:42:44;;;;;;;59.50;18.67;;;19.30;99.90;;;;;;5092656;28;20281;-62
2024/03/31 09:45:11;;;;;;;60.77;17.33;;;19.30;99.90;;;;;;5092504;28;20486;-62
2024/03/31 09:47:40;;;;;;;66.97;16.63;;;19.40;99.90;;;;;;5092114;28;20486;-62
2024/03/31 09:50:20;;;;;;;59.47;17.50;;;19.50;99.90;;;;;;5092568;28;20482;-63
2024/03/31 09:52:50;;;;;;;68.63;16.80;;;19.50;99.90;;;;;;5092609;28;20452;-62
2024/03/31 09:55:23;;;;;;;51.03;16.93;;;19.30;99.90;;;;;;5092546;28;20455;-62
2024/03/31 09:57:50;;;;;;;56.63;17.67;;;19.30;99.90;;;;;;5092511;28;20478;-62
2024/03/31 10:00:17;;;;;;;51.50;16.70;;;19.30;99.90;;;;;;5095150;28;20446;-62
2024/03/31 10:02:50;;;;;;;68.43;18.47;;;19.40;99.90;;;;;;5096107;28;21025;-62
2024/03/31 10:05:25;;;;;;;52.17;17.87;;;19.50;99.90;;;;;;5096231;28;20476;-62
2024/03/31 10:07:52;;;;;;;61.83;17.40;;;19.50;99.90;;;;;;5096001;28;20569;-62
2024/03/31 10:10:21;;;;;;;56.07;17.80;;;19.60;99.90;;;;;;5095859;28;20493;-62
2024/03/31 10:12:49;;;;;;;77.23;19.17;;;19.70;99.90;;;;;;5096130;28;20449;-62
2024/03/31 10:15:16;;;;;;;60.67;18.60;;;19.60;99.90;;;;;;5095957;28;20826;-62
2024/03/31 10:17:44;;;;;;;65.13;19.23;;;19.60;99.90;;;;;;5096041;28;20531;-62
2024/03/31 10:20:11;;;;;;;63.73;19.00;;;19.60;99.90;;;;;;5095909;28;20829;-62
2024/03/31 10:22:38;;;;;;;52.67;18.33;;;19.80;99.90;;;;;;5095902;28;20964;-63
2024/03/31 10:25:06;;;;;;;62.83;19.70;;;19.80;99.90;;;;;;5096080;28;20483;-62
2024/03/31 10:27:35;;;;;;;65.90;18.30;;;20.00;99.90;;;;;;5095719;28;20503;-62
2024/03/31 10:30:02;;;;;;;59.17;16.90;;;20.10;99.90;;;;;;5095763;28;20494;-62
2024/03/31 10:32:27;;;;;;;55.27;17.80;;;20.30;99.90;;;;;;5095595;28;20557;-62
2024/03/31 10:34:55;;;;;;;50.40;18.70;;;20.40;99.90;;;;;;5095620;28;20530;-62
2024/03/31 10:37:21;;;;;;;53.07;19.20;;;20.50;99.90;;;;;;5095481;28;20362;-62
2024/03/31 10:39:49;;;;;;;72.70;19.27;;;20.50;99.90;;;;;;5095534;28;20454;-61
2024/03/31 10:42:15;;;;;;;64.17;18.60;;;20.40;99.90;;;;;;5095577;28;20442;-62
2024/03/31 10:44:43;;;;;;;63.77;19.20;;;20.30;99.90;;;;;;5095420;28;20485;-62
2024/03/31 10:47:10;;;;;;;67.87;20.90;;;20.30;99.90;;;;;;5095146;28;21072;-62
2024/03/31 10:49:37;;;;;;;77.43;19.83;;;20.20;99.90;;;;;;5095204;28;20550;-62
2024/03/31 10:52:03;;;;;;;65.77;18.07;;;20.20;99.90;;;;;;5095138;28;20442;-60
2024/03/31 10:54:34;;;;;;;59.93;19.27;;;20.10;99.90;;;;;;5095372;28;20541;-63
2024/03/31 10:57:01;;;;;;;54.43;17.93;;;20.30;99.90;;;;;;5095258;28;20439;-63
2024/03/31 10:59:29;;;;;;;66.90;19.30;;;20.40;99.90;;;;;;5095002;28;20512;-62
2024/03/31 11:01:57;;;;;;;57.80;17.70;;;20.40;99.90;;;;;;5095317;28;20451;-62
2024/03/31 11:04:25;;;;;;;54.60;16.97;;;20.40;99.90;;;;;;5094931;28;20451;-62
2024/03/31 11:06:51;;;;;;;55.00;17.00;;;20.40;99.90;;;;;;5094981;28;20474;-62
2024/03/31 11:09:18;;;;;;;47.03;17.20;;;20.50;99.90;;;;;;5094892;28;20454;-62
2024/03/31 11:11:44;;;;;;;62.80;17.87;;;20.40;99.90;;;;;;5094422;28;20534;-62
2024/03/31 11:14:10;;;;;;;64.90;18.90;;;20.40;99.90;;;;;;5094847;28;20546;-63
2024/03/31 11:16:36;;;;;;;62.53;18.03;;;20.40;99.90;;;;;;5094724;28;20547;-63
2024/03/31 11:19:05;;;;;;;61.33;18.47;;;20.50;99.90;;;;;;5094661;28;20478;-63
2024/03/31 11:21:31;;;;;;;49.97;16.93;;;20.40;99.90;;;;;;5094871;28;20279;-62
2024/03/31 11:23:59;;;;;;;63.20;17.27;;;20.40;99.90;;;;;;5094866;28;20454;-63
2024/03/31 11:26:25;;;;;;;59.37;16.80;;;20.60;99.90;;;;;;5094556;28;20442;-63
2024/03/31 11:28:54;;;;;;;37.50;15.70;;;20.60;99.90;;;;;;5094516;28;20455;-62
2024/03/31 11:31:21;;;;;;;56.93;16.50;;;20.70;99.90;;;;;;5094707;28;20443;-63
2024/03/31 11:33:48;;;;;;;49.97;16.37;;;20.80;99.90;;;;;;5094620;28;20473;-62
2024/03/31 11:36:16;;;;;;;66.23;18.10;;;20.70;99.90;;;;;;5094393;28;20452;-62
2024/03/31 11:38:42;;;;;;;52.63;18.20;;;20.80;99.90;;;;;;5094459;28;20450;-63
2024/03/31 11:41:08;;;;;;;56.97;17.90;;;20.90;99.90;;;;;;5094427;28;20454;-62
2024/03/31 11:43:36;;;;;;;52.13;16.80;;;20.80;99.90;;;;;;5094227;28;20840;-62
2024/03/31 11:46:02;;;;;;;37.70;15.90;;;21.00;99.90;;;;;;5094020;28;20545;-62
2024/03/31 11:48:29;;;;;;;48.60;16.03;;;21.10;99.90;;;;;;5094230;28;20474;-63
2024/03/31 11:50:55;;;;;;;63.47;18.50;;;21.20;99.90;;;;;;5094456;28;20507;-63
2024/03/31 11:53:22;;;;;;;47.83;16.30;;;21.20;99.90;;;;;;5094079;28;20455;-63
2024/03/31 11:55:48;;;;;;;53.33;16.30;;;21.10;99.90;;;;;;5094380;28;20184;-63
2024/03/31 11:58:15;;;;;;;49.10;16.50;;;21.20;99.90;;;;;;5094025;28;20546;-63
2024/03/31 12:00:48;;;;;;;46.10;17.50;;;21.30;99.90;;;;;;5093917;28;20196;-62
2024/03/31 12:03:15;;;;;;;45.70;17.10;;;21.20;99.90;;;;;;5094060;28;20482;-62
2024/03/31 12:05:46;;;;;;;51.47;16.03;;;21.20;99.90;;;;;;5093979;28;20474;-63
2024/03/31 12:08:12;;;;;;;43.70;14.67;;;21.30;99.90;;;;;;5093784;28;20482;-63
2024/03/31 12:10:39;;;;;;;45.60;15.40;;;21.40;99.90;;;;;;5093586;28;21011;-62
2024/03/31 12:13:06;;;;;;;57.27;17.70;;;21.40;99.90;;;;;;5094061;28;20455;-62
2024/03/31 12:15:32;;;;;;;51.47;15.83;;;21.50;99.90;;;;;;5093858;28;20504;-63
2024/03/31 12:17:59;;;;;;;51.13;16.03;;;21.60;99.90;;;;;;5093745;28;20455;-62
2024/03/31 12:20:25;;;;;;;63.67;16.70;;;21.60;99.90;;;;;;5093588;28;20220;-63
2024/03/31 12:22:52;;;;;;;60.27;17.07;;;21.60;99.90;;;;;;5092803;28;20489;-63
2024/03/31 12:25:19;;;;;;;45.13;14.83;;;21.40;99.90;;;;;;5093813;28;20443;-63